createdAt,value
2022-08-07T00:00:53.169Z,1.33
2022-08-07T00:03:59.669Z,1.48
2022-08-07T00:07:09.574Z,1.30
2022-08-07T00:10:27.231Z,1.50
2022-08-07T00:13:37.359Z,1.30
2022-08-07T00:16:47.533Z,1.30
2022-08-07T00:20:00.993Z,1.35
2022-08-07T00:23:11.103Z,1.15
2022-08-07T00:26:31.407Z,1.25
2022-08-07T00:29:42.456Z,1.10
2022-08-07T00:32:53.080Z,1.30
2022-08-07T00:35:56.518Z,1.30
2022-08-07T00:39:01.701Z,1.35
2022-08-07T00:42:05.446Z,1.30
2022-08-07T00:45:16.066Z,1.40
2022-08-07T00:48:19.519Z,1.20
2022-08-07T00:51:58.304Z,1.30
2022-08-07T00:54:58.859Z,1.40
2022-08-07T00:58:12.883Z,0.95
2022-08-07T01:01:21.402Z,1.37
2022-08-07T01:04:24.643Z,1.30
2022-08-07T01:07:29.536Z,1.23
2022-08-07T01:10:33.633Z,1.50
2022-08-07T01:13:37.795Z,1.17
2022-08-07T01:16:43.245Z,1.17
2022-08-07T01:19:54.616Z,1.30
2022-08-07T01:23:12.452Z,1.23
2022-08-07T01:26:19.522Z,1.45
2022-08-07T01:29:27.873Z,1.17
2022-08-07T01:32:37.144Z,1.30
2022-08-07T01:35:53.074Z,1.10
2022-08-07T01:38:57.249Z,1.25
2022-08-07T01:42:36.861Z,1.30
2022-08-07T01:45:26.640Z,1.37
2022-08-07T01:48:46.809Z,1.20
2022-08-07T01:52:02.327Z,1.37
2022-08-07T01:55:10.665Z,1.17
2022-08-07T01:58:33.049Z,1.20
2022-08-07T02:02:02.317Z,1.37
2022-08-07T02:05:16.077Z,1.30
2022-08-07T02:08:42.386Z,1.30
2022-08-07T02:12:03.015Z,1.40
2022-08-07T02:15:12.585Z,1.35
2022-08-07T02:18:19.069Z,1.12
2022-08-07T02:21:23.766Z,1.05
2022-08-07T02:24:30.103Z,1.35
2022-08-07T02:27:34.502Z,1.30
2022-08-07T02:30:39.485Z,1.30
2022-08-07T02:34:01.687Z,1.05
2022-08-07T02:37:09.734Z,1.35
2022-08-07T02:40:30.782Z,1.35
2022-08-07T02:43:39.693Z,1.27
2022-08-07T02:46:46.882Z,1.10
2022-08-07T02:49:59.631Z,1.37
2022-08-07T02:53:10.911Z,1.10
2022-08-07T02:56:24.583Z,1.33
2022-08-07T02:59:32.356Z,1.17
2022-08-07T03:02:37.602Z,1.20
2022-08-07T03:05:57.235Z,1.45
2022-08-07T03:09:05.247Z,1.55
2022-08-07T03:12:16.141Z,1.50
2022-08-07T03:15:47.535Z,1.33
2022-08-07T03:18:52.773Z,1.40
2022-08-07T03:21:59.164Z,1.30
2022-08-07T03:25:04.922Z,1.20
2022-08-07T03:28:38.294Z,1.30
2022-08-07T03:31:46.459Z,1.10
2022-08-07T03:35:00.889Z,1.10
2022-08-07T03:38:21.298Z,1.30
2022-08-07T03:41:42.051Z,1.25
2022-08-07T03:44:53.510Z,1.20
2022-08-07T03:48:03.268Z,1.40
2022-08-07T03:51:07.959Z,1.10
2022-08-07T03:54:35.139Z,0.85
2022-08-07T03:58:35.122Z,1.12
2022-08-07T04:01:14.503Z,1.10
2022-08-07T04:04:21.479Z,1.15
2022-08-07T04:07:36.112Z,1.20
2022-08-07T04:10:54.129Z,1.20
2022-08-07T04:14:37.690Z,1.20
2022-08-07T04:18:56.893Z,1.00
2022-08-07T04:21:00.828Z,1.10
2022-08-07T04:24:07.651Z,1.27
2022-08-07T04:27:20.441Z,0.88
2022-08-07T04:30:35.726Z,1.23
2022-08-07T04:33:54.799Z,1.20
2022-08-07T04:36:58.474Z,0.90
2022-08-07T04:40:04.558Z,1.10
2022-08-07T04:43:11.689Z,0.80
2022-08-07T04:47:04.958Z,0.93
2022-08-07T04:50:43.665Z,0.93
2022-08-07T04:54:08.390Z,0.73
2022-08-07T04:58:11.333Z,1.10
2022-08-07T05:01:13.636Z,0.80
2022-08-07T05:04:31.398Z,0.85
2022-08-07T05:11:02.566Z,0.90
2022-08-07T05:14:55.368Z,0.95
2022-08-07T05:17:51.727Z,1.00
2022-08-07T05:21:00.419Z,0.98
2022-08-07T05:24:08.778Z,0.77
2022-08-07T05:28:01.930Z,0.90
2022-08-07T05:30:41.187Z,0.68
2022-08-07T05:34:01.376Z,0.60
2022-08-07T05:37:12.737Z,0.90
2022-08-07T05:40:20.469Z,0.80
2022-08-07T05:43:49.705Z,1.10
2022-08-07T05:46:52.089Z,0.80
2022-08-07T05:49:58.124Z,0.80
2022-08-07T05:53:02.554Z,0.80
2022-08-07T05:56:12.401Z,0.90
2022-08-07T05:59:23.051Z,0.85
2022-08-07T06:02:33.678Z,0.77
2022-08-07T06:05:38.296Z,0.70
2022-08-07T06:08:44.840Z,0.80
2022-08-07T06:15:05.085Z,0.75
2022-08-07T06:18:08.619Z,0.80
2022-08-07T06:22:15.028Z,0.90
2022-08-07T06:24:46.309Z,0.80
2022-08-07T06:31:47.054Z,0.77
2022-08-07T06:34:45.809Z,1.00
2022-08-07T06:37:49.656Z,0.90
2022-08-07T06:40:59.640Z,1.05
2022-08-07T06:44:06.610Z,1.00
2022-08-07T06:47:24.922Z,0.93
2022-08-07T06:50:35.975Z,1.00
2022-08-07T06:55:28.411Z,1.00
2022-08-07T06:56:59.638Z,0.85
2022-08-07T07:00:11.806Z,0.80
2022-08-07T07:03:40.129Z,0.80
2022-08-07T07:06:39.406Z,0.90
2022-08-07T07:09:52.856Z,0.73
2022-08-07T07:13:55.892Z,0.90
2022-08-07T07:16:49.522Z,1.00
2022-08-07T07:19:59.775Z,0.70
2022-08-07T07:24:08.869Z,0.80
2022-08-07T07:26:33.330Z,0.90
2022-08-07T07:30:09.206Z,0.90
2022-08-07T07:33:11.547Z,0.98
2022-08-07T07:36:17.462Z,0.82
2022-08-07T07:39:25.614Z,0.85
2022-08-07T07:42:32.652Z,0.80
2022-08-07T07:46:36.867Z,0.85
2022-08-07T07:49:00.121Z,0.93
2022-08-07T07:52:13.045Z,0.80
2022-08-07T07:55:19.765Z,1.00
2022-08-07T07:58:23.714Z,0.90
2022-08-07T08:02:03.420Z,0.85
2022-08-07T08:04:57.623Z,1.62
2022-08-07T08:08:02.004Z,0.70
2022-08-07T08:11:16.600Z,0.88
2022-08-07T08:14:34.517Z,0.60
2022-08-07T08:17:57.097Z,0.77
2022-08-07T08:21:02.655Z,0.88
2022-08-07T08:24:36.491Z,0.80
2022-08-07T08:27:56.957Z,0.80
2022-08-07T08:31:06.601Z,0.80
2022-08-07T08:34:19.033Z,0.80
2022-08-07T08:38:01.012Z,0.95
2022-08-07T08:41:08.057Z,0.70
2022-08-07T08:44:53.358Z,0.70
2022-08-07T08:48:28.285Z,0.90
2022-08-07T08:51:49.740Z,0.90
2022-08-07T08:55:53.852Z,0.80
2022-08-07T08:58:54.467Z,0.95
2022-08-07T09:02:34.707Z,0.82
2022-08-07T09:05:56.757Z,0.90
2022-08-07T09:09:36.991Z,0.95
2022-08-07T09:12:54.857Z,0.90
2022-08-07T09:16:42.043Z,0.90
2022-08-07T09:20:34.729Z,0.88
2022-08-07T09:24:30.645Z,0.88
2022-08-07T09:28:00.217Z,0.90
2022-08-07T09:31:27.649Z,0.80
2022-08-07T09:36:02.953Z,0.85
2022-08-07T09:38:50.198Z,0.80
2022-08-07T09:42:32.992Z,0.85
2022-08-07T09:47:27.431Z,0.90
2022-08-07T09:50:00.531Z,1.10
2022-08-07T09:53:10.118Z,0.90
2022-08-07T09:56:34.119Z,0.80
2022-08-07T10:00:05.620Z,0.80
2022-08-07T10:04:05.569Z,0.80
2022-08-07T10:07:25.912Z,0.90
2022-08-07T10:11:59.724Z,1.00
2022-08-07T10:14:39.438Z,0.80
2022-08-07T10:18:36.525Z,1.00
2022-08-07T10:25:42.062Z,0.70
2022-08-07T10:29:17.327Z,0.90
2022-08-07T10:32:59.884Z,0.95
2022-08-07T10:36:29.835Z,0.93
2022-08-07T10:39:57.653Z,1.00
2022-08-07T10:43:34.829Z,0.90
2022-08-07T10:46:48.995Z,0.80
2022-08-07T10:53:43.917Z,0.90
2022-08-07T10:56:49.383Z,0.90
2022-08-07T11:00:09.943Z,0.90
2022-08-07T11:04:16.967Z,1.10
2022-08-07T11:07:58.388Z,1.02
2022-08-07T11:11:20.199Z,1.10
2022-08-07T11:14:45.195Z,1.00
2022-08-07T11:18:18.830Z,1.00
2022-08-07T11:21:54.545Z,1.25
2022-08-07T11:25:23.227Z,0.90
2022-08-07T11:28:53.486Z,1.10
2022-08-07T11:32:10.687Z,1.20
2022-08-07T11:35:30.641Z,1.27
2022-08-07T11:38:50.523Z,1.10
2022-08-07T11:42:18.757Z,1.20
2022-08-07T11:45:37.230Z,1.20
2022-08-07T11:49:51.563Z,1.20
2022-08-07T11:53:01.380Z,1.62
2022-08-07T11:56:28.299Z,1.40
2022-08-07T12:00:12.269Z,1.40
2022-08-07T12:03:44.561Z,1.90
2022-08-07T12:07:09.028Z,2.10
2022-08-07T12:10:35.477Z,1.62
2022-08-07T12:13:53.709Z,1.58
2022-08-07T12:17:04.313Z,1.60
2022-08-07T12:20:30.683Z,1.65
2022-08-07T12:24:06.329Z,1.60
2022-08-07T12:27:18.653Z,3.00
2022-08-07T12:30:39.189Z,1.73
2022-08-07T12:34:00.676Z,2.40
2022-08-07T12:37:08.488Z,2.90
2022-08-07T12:40:46.351Z,1.90
2022-08-07T12:44:02.907Z,2.08
2022-08-07T12:47:31.120Z,2.20
2022-08-07T12:50:58.051Z,1.60
2022-08-07T12:54:36.396Z,1.80
2022-08-07T12:57:29.924Z,1.80
2022-08-07T13:00:54.726Z,1.50
2022-08-07T13:04:04.997Z,1.80
2022-08-07T13:08:14.647Z,1.70
2022-08-07T13:12:02.242Z,1.80
2022-08-07T13:15:41.274Z,1.80
2022-08-07T13:19:45.580Z,1.65
2022-08-07T13:22:53.751Z,1.83
2022-08-07T13:26:16.065Z,1.85
2022-08-07T13:29:34.635Z,1.95
2022-08-07T13:32:43.231Z,2.17
2022-08-07T13:36:17.517Z,1.87
2022-08-07T13:40:34.232Z,1.90
2022-08-07T13:42:58.211Z,1.65
2022-08-07T13:46:16.439Z,1.73
2022-08-07T13:50:33.343Z,1.85
2022-08-07T13:52:47.010Z,1.85
2022-08-07T13:55:54.613Z,1.80
2022-08-07T13:59:05.634Z,2.08
2022-08-07T14:02:19.399Z,1.70
2022-08-07T14:05:37.444Z,1.92
2022-08-07T14:08:53.727Z,1.73
2022-08-07T14:12:07.462Z,1.90
2022-08-07T14:15:31.640Z,1.70
2022-08-07T14:18:45.833Z,2.00
2022-08-07T14:22:01.717Z,1.83
2022-08-07T14:25:14.677Z,1.70
2022-08-07T14:31:42.948Z,1.85
2022-08-07T14:38:31.355Z,1.92
2022-08-07T14:42:19.942Z,1.95
2022-08-07T14:45:22.389Z,2.03
2022-08-07T14:48:33.068Z,1.65
2022-08-07T14:52:02.801Z,1.83
2022-08-07T14:54:59.015Z,1.75
2022-08-07T14:58:04.159Z,1.62
2022-08-07T15:01:21.669Z,1.73
2022-08-07T15:04:26.274Z,1.83
2022-08-07T15:07:47.383Z,1.77
2022-08-07T15:10:59.228Z,1.87
2022-08-07T15:14:10.087Z,1.95
2022-08-07T15:17:17.117Z,2.30
2022-08-07T15:20:30.678Z,1.75
2022-08-07T15:25:15.910Z,1.90
2022-08-07T15:27:19.291Z,1.90
2022-08-07T15:30:28.597Z,2.10
2022-08-07T15:33:42.660Z,1.90
2022-08-07T15:37:02.812Z,1.73
2022-08-07T15:40:13.975Z,2.20
2022-08-07T15:53:51.574Z,1.80
2022-08-07T15:57:01.465Z,1.90
2022-08-07T16:00:06.759Z,1.90
2022-08-07T16:06:36.731Z,2.00
2022-08-07T16:09:56.219Z,1.90
2022-08-07T16:13:57.587Z,2.17
2022-08-07T16:17:14.978Z,2.28
2022-08-07T16:22:01.419Z,2.17
2022-08-07T16:24:36.200Z,2.25
2022-08-07T16:27:49.706Z,2.60
2022-08-07T16:31:51.754Z,2.20
2022-08-07T16:34:49.618Z,2.12
2022-08-07T16:38:57.355Z,2.10
2022-08-07T16:41:57.239Z,1.90
2022-08-07T16:45:14.884Z,1.98
2022-08-07T16:49:04.045Z,2.00
2022-08-07T16:56:00.166Z,2.20
2022-08-07T16:59:17.642Z,2.00
2022-08-07T17:02:53.691Z,2.00
2022-08-07T17:06:31.454Z,2.67
2022-08-07T17:14:19.357Z,2.20
2022-08-07T17:44:42.783Z,1.52
2022-08-07T17:48:04.569Z,1.58
2022-08-07T17:58:54.306Z,1.70
2022-08-07T18:02:25.792Z,1.70
2022-08-07T18:06:09.525Z,1.58
2022-08-07T18:10:04.739Z,1.58
2022-08-07T18:16:36.362Z,1.40
2022-08-07T18:21:07.005Z,1.40
2022-08-07T18:24:02.056Z,1.50
2022-08-07T18:30:33.050Z,1.30
2022-08-07T18:38:59.711Z,1.30
2022-08-07T18:41:45.336Z,1.40
2022-08-07T18:59:47.564Z,1.20
2022-08-07T19:03:12.161Z,1.20
2022-08-07T19:06:53.223Z,1.10
2022-08-07T19:10:05.819Z,0.95
2022-08-07T19:13:29.414Z,0.98
2022-08-07T19:16:43.071Z,1.20
2022-08-07T19:20:29.116Z,1.12
2022-08-07T19:23:58.423Z,1.10
2022-08-07T19:31:00.217Z,1.20
2022-08-07T19:33:57.847Z,0.98
2022-08-07T19:37:17.475Z,1.20
2022-08-07T19:40:30.794Z,1.10
2022-08-07T19:43:44.118Z,1.10
2022-08-07T19:47:07.627Z,0.88
2022-08-07T19:54:34.716Z,1.00
2022-08-07T19:58:02.349Z,0.80
2022-08-07T20:00:28.247Z,0.88
2022-08-07T20:03:36.480Z,1.02
2022-08-07T20:06:42.796Z,1.12
2022-08-07T20:10:37.975Z,0.70
2022-08-07T20:13:22.703Z,0.77
2022-08-07T20:16:36.410Z,1.00
2022-08-07T20:19:58.802Z,0.98
2022-08-07T20:23:22.955Z,1.05
2022-08-07T20:26:45.156Z,1.08
2022-08-07T20:29:59.399Z,1.00
2022-08-07T20:33:36.811Z,0.90
2022-08-07T20:36:27.254Z,0.98
2022-08-07T20:40:02.248Z,1.10
2022-08-07T20:42:58.840Z,1.00
2022-08-07T20:46:27.745Z,0.80
2022-08-07T20:50:00.447Z,0.90
2022-08-07T20:52:51.879Z,1.00
2022-08-07T20:56:01.375Z,1.00
2022-08-07T20:59:06.088Z,0.82
2022-08-07T21:02:54.372Z,1.10
2022-08-07T21:06:21.594Z,1.00
2022-08-07T21:09:52.121Z,1.10
2022-08-07T21:12:59.480Z,0.90
2022-08-07T21:16:05.258Z,0.90
2022-08-07T21:19:13.886Z,0.90
2022-08-07T21:22:20.545Z,0.90
2022-08-07T21:25:50.915Z,0.80
2022-08-07T21:29:07.061Z,0.90
2022-08-07T21:32:49.707Z,1.10
2022-08-07T21:36:12.230Z,0.80
2022-08-07T21:40:10.003Z,1.00
2022-08-07T21:43:23.081Z,0.90
2022-08-07T21:46:47.508Z,0.90
2022-08-07T21:50:32.052Z,0.95
2022-08-07T21:53:52.502Z,1.00
2022-08-07T21:57:30.889Z,0.98
2022-08-07T22:00:42.455Z,0.80
2022-08-07T22:04:09.245Z,1.00
2022-08-07T22:07:31.454Z,0.88
2022-08-07T22:10:57.314Z,0.80
2022-08-07T22:14:05.412Z,0.70
2022-08-07T22:17:20.812Z,0.80
2022-08-07T22:20:46.694Z,0.73
2022-08-07T22:23:56.738Z,0.82
2022-08-07T22:27:34.050Z,0.82
2022-08-07T22:31:45.078Z,0.70
2022-08-07T22:34:53.644Z,0.68
2022-08-07T22:38:05.443Z,0.70
2022-08-07T22:41:16.820Z,0.70
2022-08-07T22:44:25.429Z,0.70
2022-08-07T22:48:31.402Z,0.70
2022-08-07T22:51:53.801Z,0.70
2022-08-07T22:55:31.468Z,0.70
2022-08-07T22:58:55.533Z,0.90
2022-08-07T23:02:12.479Z,0.60
2022-08-07T23:06:08.709Z,0.60
2022-08-07T23:10:04.610Z,0.82
2022-08-07T23:13:19.023Z,0.65
2022-08-07T23:16:46.912Z,0.70
2022-08-07T23:20:51.710Z,0.70
2022-08-07T23:24:23.639Z,0.90
2022-08-07T23:28:20.268Z,0.60
2022-08-07T23:31:18.874Z,0.60
2022-08-07T23:35:12.069Z,0.60
2022-08-07T23:38:36.606Z,0.85
2022-08-07T23:42:21.631Z,0.70
2022-08-07T23:46:01.341Z,0.50
2022-08-07T23:49:42.026Z,0.60
2022-08-07T23:53:17.043Z,0.57
2022-08-07T23:56:41.685Z,0.60
